Time;durP1;ratioP1;P1;durP2;ratioP2;P2;SDS_P1;SDS_P2;PMS_P1;PMS_P2;Temp;Humidity;BMP_temperature;BMP_pressure;BME280_temperature;BME280_humidity;BME280_pressure;Samples;Min_cycle;Max_cycle;Signal;HPM_P1;HPM_P2
2021/09/05 00:00:45;;;;;;;;;;;;;;;;;;5023575;28;19933;-73
2021/09/05 00:03:12;;;;;;;;;;;;;;;;;;5024338;28;19925;-72
2021/09/05 00:05:39;;;;;;;;;;;;;;;;;;5019204;28;19925;-72
2021/09/05 00:08:06;;;;;;;;;;;;;;;;;;5022885;28;19932;-72
2021/09/05 00:10:33;;;;;;;;;;;;;;;;;;5025270;28;19926;-72
2021/09/05 00:13:00;;;;;;;;;;;;;;;;;;5024711;28;19933;-72
2021/09/05 00:15:27;;;;;;;;;;;;;;;;;;5025044;28;19932;-72
2021/09/05 00:17:55;;;;;;;;;;;;;;;;;;5023072;28;20182;-72
2021/09/05 00:20:22;;;;;;;;;;;;;;;;;;5018702;28;19925;-73
2021/09/05 00:22:49;;;;;;;;;;;;;;;;;;5024977;28;19929;-71
2021/09/05 00:25:16;;;;;;;;;;;;;;;;;;5024053;28;19936;-73
2021/09/05 00:27:43;;;;;;;;;;;;;;;;;;5024474;28;19929;-71
2021/09/05 00:30:10;;;;;;;;;;;;;;;;;;5021837;28;20312;-73
2021/09/05 00:32:37;;;;;;;;;;;;;;;;;;5024260;28;19925;-73
2021/09/05 00:35:07;;;;;;;;;;;;;;;;;;5025212;28;19926;-71
2021/09/05 00:37:34;;;;;;;;;;;;;;;;;;5023908;28;19980;-74
2021/09/05 00:40:01;;;;;;;;;;;;;;;;;;5029183;28;19925;-73
2021/09/05 00:42:28;;;;;;;;;;;;;;;;;;5023873;28;20500;-72
2021/09/05 00:44:54;;;;;;;;;;;;;;;;;;5024588;28;19925;-71
2021/09/05 00:47:21;;;;;;;;;;;;;;;;;;5024365;28;21220;-73
2021/09/05 00:49:48;;;;;;;;;;;;;;;;;;5021535;28;19931;-73
2021/09/05 00:52:15;;;;;;;;;;;;;;;;;;5020061;28;19939;-73
2021/09/05 00:54:43;;;;;;;;;;;;;;;;;;5020590;28;20283;-71
2021/09/05 00:57:10;;;;;;;;;;;;;;;;;;5019614;28;19930;-73
2021/09/05 00:59:37;;;;;;;;;;;;;;;;;;5018120;28;19925;-73
2021/09/05 01:02:04;;;;;;;;;;;;;;;;;;5018630;28;20007;-73
2021/09/05 01:04:31;;;;;;;;;;;;;;;;;;5021746;28;19947;-73
2021/09/05 01:06:58;;;;;;;;;;;;;;;;;;5025119;28;19925;-73
2021/09/05 01:09:25;;;;;;;;;;;;;;;;;;5023766;28;20279;-72
2021/09/05 01:11:52;;;;;;;;;;;;;;;;;;5022190;28;21528;-72
2021/09/05 01:14:19;;;;;;;;;;;;;;;;;;5020298;28;19929;-71
2021/09/05 01:16:46;;;;;;;;;;;;;;;;;;5022611;28;20352;-71
2021/09/05 01:19:13;;;;;;;;;;;;;;;;;;5017069;28;19972;-71
2021/09/05 01:21:40;;;;;;;;;;;;;;;;;;5016414;28;20317;-72
2021/09/05 01:24:07;;;;;;;;;;;;;;;;;;5019395;28;19932;-72
2021/09/05 01:26:34;;;;;;;;;;;;;;;;;;5022043;28;19925;-71
2021/09/05 01:29:01;;;;;;;;;;;;;;;;;;5025304;28;19925;-72
2021/09/05 01:31:28;;;;;;;;;;;;;;;;;;5023200;28;19925;-71
2021/09/05 01:33:55;;;;;;;;;;;;;;;;;;5027248;28;19932;-72
2021/09/05 01:36:22;;;;;;;;;;;;;;;;;;5024986;28;19932;-72
2021/09/05 01:38:49;;;;;;;;;;;;;;;;;;5027847;28;20303;-72
2021/09/05 01:41:16;;;;;;;;;;;;;;;;;;5020594;28;19947;-72
2021/09/05 01:43:43;;;;;;;;;;;;;;;;;;5028521;28;19979;-72
2021/09/05 01:46:10;;;;;;;;;;;;;;;;;;5023145;28;19940;-73
2021/09/05 01:48:37;;;;;;;;;;;;;;;;;;5029391;28;19931;-72
2021/09/05 01:51:04;;;;;;;;;;;;;;;;;;5031316;28;19929;-71
2021/09/05 01:53:31;;;;;;;;;;;;;;;;;;5020672;28;19926;-74
2021/09/05 01:55:58;;;;;;;;;;;;;;;;;;5028404;28;19947;-74
2021/09/05 01:58:25;;;;;;;;;;;;;;;;;;5022999;28;19932;-72
2021/09/05 02:00:52;;;;;;;;;;;;;;;;;;5021809;28;20588;-71
2021/09/05 02:03:19;;;;;;;;;;;;;;;;;;5026766;28;19925;-72
2021/09/05 02:05:46;;;;;;;;;;;;;;;;;;5027630;28;19929;-73
2021/09/05 02:08:13;;;;;;;;;;;;;;;;;;5020777;28;19935;-72
2021/09/05 02:10:40;;;;;;;;;;;;;;;;;;5022119;28;19940;-71
2021/09/05 02:13:07;;;;;;;;;;;;;;;;;;5024644;28;19925;-73
2021/09/05 02:15:34;;;;;;;;;;;;;;;;;;5028971;28;19925;-74
2021/09/05 02:18:01;;;;;;;;;;;;;;;;;;5028761;28;19925;-71
2021/09/05 02:20:28;;;;;;;;;;;;;;;;;;5025127;28;19930;-72
2021/09/05 02:22:55;;;;;;;;;;;;;;;;;;5024165;28;19935;-71
2021/09/05 02:25:22;;;;;;;;;;;;;;;;;;5019621;28;20036;-72
2021/09/05 02:27:49;;;;;;;;;;;;;;;;;;5026339;28;19926;-72
2021/09/05 02:30:16;;;;;;;;;;;;;;;;;;5025738;28;19925;-70
2021/09/05 02:32:42;;;;;;;;;;;;;;;;;;5025829;28;19932;-73
2021/09/05 02:35:09;;;;;;;;;;;;;;;;;;5027242;28;19929;-72
2021/09/05 02:37:37;;;;;;;;;;;;;;;;;;5024523;28;19925;-73
2021/09/05 02:40:05;;;;;;;;;;;;;;;;;;5022622;28;19926;-74
2021/09/05 02:42:33;;;;;;;;;;;;;;;;;;5021284;28;20393;-73
2021/09/05 02:45:00;;;;;;;;;;;;;;;;;;5021253;28;19933;-73
2021/09/05 02:47:27;;;;;;;;;;;;;;;;;;5024767;28;20291;-72
2021/09/05 02:49:54;;;;;;;;;;;;;;;;;;5020995;28;20386;-72
2021/09/05 02:52:21;;;;;;;;;;;;;;;;;;5025844;28;19933;-72
2021/09/05 02:54:48;;;;;;;;;;;;;;;;;;5020917;28;19925;-72
2021/09/05 02:57:15;;;;;;;;;;;;;;;;;;5029048;28;19933;-73
2021/09/05 02:59:42;;;;;;;;;;;;;;;;;;5020866;28;19925;-72
2021/09/05 03:02:09;;;;;;;;;;;;;;;;;;5017367;28;19925;-70
2021/09/05 03:04:36;;;;;;;;;;;;;;;;;;5022032;28;19932;-74
2021/09/05 03:07:03;;;;;;;;;;;;;;;;;;5025120;28;20389;-73
2021/09/05 03:09:30;;;;;;;;;;;;;;;;;;5019435;28;19939;-73
2021/09/05 03:11:57;;;;;;;;;;;;;;;;;;5025996;28;19925;-73
2021/09/05 03:14:24;;;;;;;;;;;;;;;;;;5020393;28;20488;-74
2021/09/05 03:16:51;;;;;;;;;;;;;;;;;;5023129;28;19925;-73
2021/09/05 03:19:18;;;;;;;;;;;;;;;;;;5026846;28;19929;-73
2021/09/05 03:21:46;;;;;;;;;;;;;;;;;;5021968;28;19933;-73
2021/09/05 03:24:13;;;;;;;;;;;;;;;;;;5021899;28;19962;-73
2021/09/05 03:26:40;;;;;;;;;;;;;;;;;;5019387;28;20415;-73
2021/09/05 03:29:07;;;;;;;;;;;;;;;;;;5022243;28;19925;-72
2021/09/05 03:31:34;;;;;;;;;;;;;;;;;;5021548;28;20460;-73
2021/09/05 03:34:01;;;;;;;;;;;;;;;;;;5025495;28;19980;-72
2021/09/05 03:36:28;;;;;;;;;;;;;;;;;;5022570;28;19933;-73
2021/09/05 03:38:55;;;;;;;;;;;;;;;;;;5018470;28;20444;-73
2021/09/05 03:41:22;;;;;;;;;;;;;;;;;;5024002;28;19929;-73
2021/09/05 03:43:49;;;;;;;;;;;;;;;;;;5038173;23;19925;-67
2021/09/05 03:46:16;;;;;;;;;;;;;;;;;;5022510;28;19932;-66
2021/09/05 03:48:42;;;;;;;;;;;;;;;;;;5025402;28;19925;-66
2021/09/05 03:51:09;;;;;;;;;;;;;;;;;;5018629;28;19983;-66
2021/09/05 03:53:36;;;;;;;;;;;;;;;;;;5020211;28;19932;-66
2021/09/05 03:56:03;;;;;;;;;;;;;;;;;;5025172;28;20001;-66
2021/09/05 03:58:30;;;;;;;;;;;;;;;;;;5021524;28;19925;-66
2021/09/05 04:00:57;;;;;;;;;;;;;;;;;;5019115;28;19925;-67
2021/09/05 04:03:24;;;;;;;;;;;;;;;;;;5026314;28;19925;-66
2021/09/05 04:05:51;;;;;;;;;;;;;;;;;;5019376;28;19957;-66
2021/09/05 04:08:18;;;;;;;;;;;;;;;;;;5016381;28;19936;-66
2021/09/05 04:10:45;;;;;;;;;;;;;;;;;;5023706;28;19932;-66
2021/09/05 04:13:14;;;;;;;;;;;;;;;;;;5017732;28;19925;-66
2021/09/05 04:15:40;;;;;;;;;;;;;;;;;;5021819;28;19929;-66
2021/09/05 04:18:07;;;;;;;;;;;;;;;;;;5021047;28;20404;-66
2021/09/05 04:20:34;;;;;;;;;;;;;;;;;;5021811;28;20464;-66
2021/09/05 04:23:01;;;;;;;;;;;;;;;;;;5021720;28;19933;-66
2021/09/05 04:25:28;;;;;;;;;;;;;;;;;;5023852;28;19925;-66
2021/09/05 04:27:55;;;;;;;;;;;;;;;;;;5019678;28;19925;-66
2021/09/05 04:30:22;;;;;;;;;;;;;;;;;;5019712;28;19967;-66
2021/09/05 04:32:51;;;;;;;;;;;;;;;;;;5023791;28;19955;-66
2021/09/05 04:35:18;;;;;;;;;;;;;;;;;;5023984;28;19984;-66
2021/09/05 04:37:45;;;;;;;;;;;;;;;;;;5025219;28;19933;-65
2021/09/05 04:40:12;;;;;;;;;;;;;;;;;;5020946;28;20304;-66
2021/09/05 04:42:39;;;;;;;;;;;;;;;;;;5017416;28;19955;-66
2021/09/05 04:45:06;;;;;;;;;;;;;;;;;;5021842;28;19925;-66
2021/09/05 04:47:33;;;;;;;;;;;;;;;;;;5023099;28;19925;-66
2021/09/05 04:49:59;;;;;;;;;;;;;;;;;;5017331;28;20580;-65
2021/09/05 04:52:26;;;;;;;;;;;;;;;;;;5025027;28;19929;-66
2021/09/05 04:54:53;;;;;;;;;;;;;;;;;;5022245;28;19930;-66
2021/09/05 04:57:20;;;;;;;;;;;;;;;;;;5017271;28;19929;-66
2021/09/05 04:59:47;;;;;;;;;;;;;;;;;;5018399;28;19939;-66
2021/09/05 05:02:14;;;;;;;;;;;;;;;;;;5021397;28;19933;-66
2021/09/05 05:04:41;;;;;;;;;;;;;;;;;;5024919;28;19932;-66
2021/09/05 05:07:09;;;;;;;;;;;;;;;;;;5020070;28;20389;-67
2021/09/05 05:09:43;;;;;;;;;;;;;;;;;;5023101;28;20385;-66
2021/09/05 05:12:10;;;;;;;;;;;;;;;;;;5021196;28;19936;-66
2021/09/05 05:14:37;;;;;;;;;;;;;;;;;;5018824;28;19929;-66
2021/09/05 05:17:04;;;;;;;;;;;;;;;;;;5021894;28;20520;-66
2021/09/05 05:19:31;;;;;;;;;;;;;;;;;;5017530;28;19935;-65
2021/09/05 05:21:58;;;;;;;;;;;;;;;;;;5021556;28;19925;-66
2021/09/05 05:24:25;;;;;;;;;;;;;;;;;;5019629;28;20011;-65
2021/09/05 05:26:54;;;;;;;;;;;;;;;;;;5019546;28;20381;-66
2021/09/05 05:29:21;;;;;;;;;;;;;;;;;;5025723;28;19929;-65
2021/09/05 05:31:48;;;;;;;;;;;;;;;;;;5023001;28;19925;-67
2021/09/05 05:34:15;;;;;;;;;;;;;;;;;;5021463;28;19933;-66
2021/09/05 05:36:42;;;;;;;;;;;;;;;;;;5021148;28;19933;-66
2021/09/05 05:39:09;;;;;;;;;;;;;;;;;;5025572;28;20407;-68
2021/09/05 05:41:35;;;;;;;;;;;;;;;;;;5018561;28;19925;-66
2021/09/05 05:44:02;;;;;;;;;;;;;;;;;;5026320;28;19929;-66
2021/09/05 05:46:32;;;;;;;;;;;;;;;;;;5020957;28;20302;-65
2021/09/05 05:49:00;;;;;;;;;;;;;;;;;;5022769;28;19965;-66
2021/09/05 05:51:27;;;;;;;;;;;;;;;;;;5019402;28;20308;-66
2021/09/05 05:53:54;;;;;;;;;;;;;;;;;;5020527;28;19929;-66
2021/09/05 05:56:21;;;;;;;;;;;;;;;;;;5018848;28;20257;-66
2021/09/05 05:58:48;;;;;;;;;;;;;;;;;;5024483;28;19933;-66
2021/09/05 06:01:15;;;;;;;;;;;;;;;;;;5024985;28;19929;-66
2021/09/05 06:03:42;;;;;;;;;;;;;;;;;;5025643;28;19933;-66
2021/09/05 06:06:09;;;;;;;;;;;;;;;;;;5024301;28;19930;-66
2021/09/05 06:08:37;;;;;;;;;;;;;;;;;;5018033;28;19925;-66
2021/09/05 06:11:04;;;;;;;;;;;;;;;;;;5025833;28;19971;-66
2021/09/05 06:13:31;;;;;;;;;;;;;;;;;;5018167;28;20311;-66
2021/09/05 06:15:58;;;;;;;;;;;;;;;;;;5023709;28;21284;-65
2021/09/05 06:18:27;;;;;;;;;;;;;;;;;;5026032;28;19925;-66
2021/09/05 06:20:54;;;;;;;;;;;;;;;;;;5025763;28;20332;-65
2021/09/05 06:23:21;;;;;;;;;;;;;;;;;;5024851;28;19932;-66
2021/09/05 06:25:47;;;;;;;;;;;;;;;;;;5024282;28;19945;-66
2021/09/05 06:28:14;;;;;;;;;;;;;;;;;;5027650;28;20407;-66
2021/09/05 06:30:41;;;;;;;;;;;;;;;;;;5022168;28;19932;-66
2021/09/05 06:33:08;;;;;;;;;;;;;;;;;;5020740;28;19929;-67
2021/09/05 06:35:35;;;;;;;;;;;;;;;;;;5023395;28;20003;-66
2021/09/05 06:38:02;;;;;;;;;;;;;;;;;;5028850;28;20397;-67
2021/09/05 06:40:30;;;;;;;;;;;;;;;;;;5024391;28;20332;-66
2021/09/05 06:42:57;;;;;;;;;;;;;;;;;;5023767;28;19964;-66
2021/09/05 06:45:24;;;;;;;;;;;;;;;;;;5021023;28;19929;-66
2021/09/05 06:47:51;;;;;;;;;;;;;;;;;;5024323;28;19940;-66
2021/09/05 06:50:18;;;;;;;;;;;;;;;;;;5019655;28;19937;-66
2021/09/05 06:52:45;;;;;;;;;;;;;;;;;;5025594;28;20305;-66
2021/09/05 06:55:12;;;;;;;;;;;;;;;;;;5022700;28;19987;-67
2021/09/05 06:57:39;;;;;;;;;;;;;;;;;;5025153;28;19936;-67
2021/09/05 07:00:06;;;;;;;;;;;;;;;;;;5025439;28;19932;-67
2021/09/05 07:02:33;;;;;;;;;;;;;;;;;;5020105;28;20012;-68
2021/09/05 07:05:00;;;;;;;;;;;;;;;;;;5025818;28;20031;-66
2021/09/05 07:07:27;;;;;;;;;;;;;;;;;;5023428;28;20317;-65
2021/09/05 07:09:54;;;;;;;;;;;;;;;;;;5023964;28;19926;-65
2021/09/05 07:12:21;;;;;;;;;;;;;;;;;;5031356;28;19931;-66
2021/09/05 07:14:48;;;;;;;;;;;;;;;;;;5023491;28;19936;-65
2021/09/05 07:17:15;;;;;;;;;;;;;;;;;;5022857;28;19944;-66
2021/09/05 07:19:42;;;;;;;;;;;;;;;;;;5022150;28;20358;-65
2021/09/05 07:22:09;;;;;;;;;;;;;;;;;;5018335;28;19925;-65
2021/09/05 07:24:36;;;;;;;;;;;;;;;;;;5022982;28;19929;-66
2021/09/05 07:27:03;;;;;;;;;;;;;;;;;;5019196;28;21201;-66
2021/09/05 07:29:30;;;;;;;;;;;;;;;;;;5017987;28;19926;-65
2021/09/05 07:31:57;;;;;;;;;;;;;;;;;;5028086;28;20012;-66
2021/09/05 07:34:24;;;;;;;;;;;;;;;;;;5020044;28;20399;-66
2021/09/05 07:36:51;;;;;;;;;;;;;;;;;;5021363;28;19925;-66
2021/09/05 07:39:18;;;;;;;;;;;;;;;;;;5027771;28;20020;-66
2021/09/05 07:41:45;;;;;;;;;;;;;;;;;;5024251;28;19925;-67
2021/09/05 07:44:12;;;;;;;;;;;;;;;;;;5020908;28;19977;-67
2021/09/05 07:46:39;;;;;;;;;;;;;;;;;;5019139;28;19925;-66
2021/09/05 07:49:06;;;;;;;;;;;;;;;;;;5021927;28;19935;-66
2021/09/05 07:51:33;;;;;;;;;;;;;;;;;;5023561;28;19925;-67
2021/09/05 07:54:00;;;;;;;;;;;;;;;;;;5021718;28;19925;-67
2021/09/05 07:56:27;;;;;;;;;;;;;;;;;;5023005;28;19929;-66
2021/09/05 07:58:54;;;;;;;;;;;;;;;;;;5022567;28;19925;-67
2021/09/05 08:01:20;;;;;;;;;;;;;;;;;;5023800;28;19928;-67
2021/09/05 08:03:48;;;;;;;;;;;;;;;;;;5020964;28;19934;-66
2021/09/05 08:06:15;;;;;;;;;;;;;;;;;;5022373;28;19932;-66
2021/09/05 08:08:42;;;;;;;;;;;;;;;;;;5024426;28;20404;-65
2021/09/05 08:11:09;;;;;;;;;;;;;;;;;;5022636;28;20021;-65
2021/09/05 08:13:36;;;;;;;;;;;;;;;;;;5021754;28;19926;-66
2021/09/05 08:16:03;;;;;;;;;;;;;;;;;;5022730;28;20029;-66
2021/09/05 08:18:30;;;;;;;;;;;;;;;;;;5017293;28;19925;-65
2021/09/05 08:20:57;;;;;;;;;;;;;;;;;;5018608;28;19929;-63
2021/09/05 08:23:24;;;;;;;;;;;;;;;;;;5018680;28;19925;-65
2021/09/05 08:25:51;;;;;;;;;;;;;;;;;;5020017;28;19929;-66
2021/09/05 08:28:18;;;;;;;;;;;;;;;;;;5019622;28;20083;-67
2021/09/05 08:30:45;;;;;;;;;;;;;;;;;;5015870;28;19933;-66
2021/09/05 08:33:12;;;;;;;;;;;;;;;;;;5018950;28;20261;-64
2021/09/05 08:35:39;;;;;;;;;;;;;;;;;;5020051;28;20012;-64
2021/09/05 08:38:06;;;;;;;;;;;;;;;;;;5023365;28;19933;-65
2021/09/05 08:40:33;;;;;;;;;;;;;;;;;;5020493;28;19933;-66
2021/09/05 08:43:00;;;;;;;;;;;;;;;;;;5024902;28;19935;-66
2021/09/05 08:45:26;;;;;;;;;;;;;;;;;;5019086;28;19929;-65
2021/09/05 08:47:53;;;;;;;;;;;;;;;;;;5020434;28;19955;-65
2021/09/05 08:50:20;;;;;;;;;;;;;;;;;;5017209;28;20205;-66
2021/09/05 08:52:47;;;;;;;;;;;;;;;;;;5019342;28;19933;-66
2021/09/05 08:55:14;;;;;;;;;;;;;;;;;;5018378;28;19926;-64
2021/09/05 08:57:41;;;;;;;;;;;;;;;;;;5021349;28;19933;-64
2021/09/05 09:00:08;;;;;;;;;;;;;;;;;;5023247;28;19931;-65
2021/09/05 09:02:35;;;;;;;;;;;;;;;;;;5023102;28;19956;-65
2021/09/05 09:05:02;;;;;;;;;;;;;;;;;;5017483;28;19932;-65
2021/09/05 09:07:29;;;;;;;;;;;;;;;;;;5021605;28;20012;-64
2021/09/05 09:09:56;;;;;;;;;;;;;;;;;;5021906;28;19955;-65
2021/09/05 09:12:23;;;;;;;;;;;;;;;;;;5023818;28;20044;-66
2021/09/05 09:14:50;;;;;;;;;;;;;;;;;;5021148;28;20040;-63
2021/09/05 09:17:17;;;;;;;;;;;;;;;;;;5023367;28;19929;-67
2021/09/05 09:19:44;;;;;;;;;;;;;;;;;;5021426;28;20384;-64
2021/09/05 09:22:11;;;;;;;;;;;;;;;;;;5021203;28;20571;-63
2021/09/05 09:24:38;;;;;;;;;;;;;;;;;;5024401;28;19925;-65
2021/09/05 09:27:05;;;;;;;;;;;;;;;;;;5021514;28;19925;-64
2021/09/05 09:29:32;;;;;;;;;;;;;;;;;;5021989;28;20541;-65
2021/09/05 09:31:59;;;;;;;;;;;;;;;;;;5019931;28;19925;-65
2021/09/05 09:34:26;;;;;;;;;;;;;;;;;;5020368;28;19932;-64
2021/09/05 09:36:53;;;;;;;;;;;;;;;;;;5014774;28;20020;-65
2021/09/05 09:39:20;;;;;;;;;;;;;;;;;;5024776;28;19931;-64
2021/09/05 09:44:25;;;;;;;;;;;;;;;;;;5022217;28;19932;-68
2021/09/05 09:46:52;;;;;;;;;;;;;;;;;;5025538;28;19932;-66
2021/09/05 09:49:19;;;;;;;;;;;;;;;;;;5025697;28;19932;-68
2021/09/05 09:51:45;;;;;;;;;;;;;;;;;;5022955;28;20317;-67
2021/09/05 09:54:12;;;;;;;;;;;;;;;;;;5025034;28;19947;-67
2021/09/05 09:56:39;;;;;;;;;;;;;;;;;;5024100;28;20272;-68
2021/09/05 09:59:07;;;;;;;;;;;;;;;;;;5026967;28;19932;-67
2021/09/05 10:01:34;;;;;;;;;;;;;;;;;;5027780;28;19925;-68
2021/09/05 10:04:01;;;;;;;;;;;;;;;;;;5027288;28;19925;-68
2021/09/05 10:06:28;;;;;;;;;;;;;;;;;;5028005;28;19925;-68
2021/09/05 10:08:55;;;;;;;;;;;;;;;;;;5027829;28;19933;-68
2021/09/05 10:11:21;;;;;;;;;;;;;;;;;;5025469;28;19932;-68
2021/09/05 10:13:48;;;;;;;;;;;;;;;;;;5026938;28;20289;-68
2021/09/05 10:16:15;;;;;;;;;;;;;;;;;;5028340;28;19925;-68
2021/09/05 10:18:42;;;;;;;;;;;;;;;;;;5028457;28;19925;-67
2021/09/05 10:21:11;;;;;;;;;;;;;;;;;;5023982;28;20363;-68
2021/09/05 10:23:37;;;;;;;;;;;;;;;;;;5025216;28;20028;-68
2021/09/05 10:26:04;;;;;;;;;;;;;;;;;;5027985;28;19925;-68
2021/09/05 10:28:31;;;;;;;;;;;;;;;;;;5024041;28;19926;-68
2021/09/05 10:30:58;;;;;;;;;;;;;;;;;;5026114;28;19949;-69
2021/09/05 10:33:25;;;;;;;;;;;;;;;;;;5028047;28;19925;-68
2021/09/05 10:35:52;;;;;;;;;;;;;;;;;;5026849;28;19943;-68
2021/09/05 10:38:21;;;;;;;;;;;;;;;;;;5027301;28;19937;-69
2021/09/05 10:40:48;;;;;;;;;;;;;;;;;;5025972;28;19933;-69
2021/09/05 10:43:15;;;;;;;;;;;;;;;;;;5026557;28;19929;-67
2021/09/05 10:45:42;;;;;;;;;;;;;;;;;;5027530;28;19929;-68
2021/09/05 10:48:08;;;;;;;;;;;;;;;;;;5025655;28;20277;-67
2021/09/05 10:50:35;;;;;;;;;;;;;;;;;;5026394;28;19926;-69
2021/09/05 10:53:02;;;;;;;;;;;;;;;;;;5026484;28;19926;-68
2021/09/05 10:55:29;;;;;;;;;;;;;;;;;;5025989;28;20326;-68
2021/09/05 10:57:56;;;;;;;;;;;;;;;;;;5026770;28;19925;-68
2021/09/05 11:00:23;;;;;;;;;;;;;;;;;;5023169;28;20016;-68
2021/09/05 11:02:50;;;;;;;;;;;;;;;;;;5026387;28;19929;-68
2021/09/05 11:05:18;;;;;;;;;;;;;;;;;;5022556;28;19933;-68
2021/09/05 11:07:45;;;;;;;;;;;;;;;;;;5028882;28;19933;-68
2021/09/05 11:10:12;;;;;;;;;;;;;;;;;;5022293;28;19979;-68
2021/09/05 11:12:40;;;;;;;;;;;;;;;;;;5024618;28;19933;-67
2021/09/05 11:15:07;;;;;;;;;;;;;;;;;;5025447;28;19925;-68
2021/09/05 11:17:34;;;;;;;;;;;;;;;;;;5023364;28;20120;-68
2021/09/05 11:20:01;;;;;;;;;;;;;;;;;;5026030;28;19929;-68
2021/09/05 11:22:28;;;;;;;;;;;;;;;;;;5025613;28;20381;-68
2021/09/05 11:24:55;;;;;;;;;;;;;;;;;;5025659;28;19958;-68
2021/09/05 11:27:22;;;;;;;;;;;;;;;;;;5025663;28;19928;-70
2021/09/05 11:29:49;;;;;;;;;;;;;;;;;;5024696;28;19935;-70
2021/09/05 11:32:17;;;;;;;;;;;;;;;;;;5026099;28;19932;-68
2021/09/05 11:34:44;;;;;;;;;;;;;;;;;;5022543;28;20543;-69
2021/09/05 11:37:11;;;;;;;;;;;;;;;;;;5027130;28;19942;-71
2021/09/05 11:39:38;;;;;;;;;;;;;;;;;;5026469;28;20020;-70
2021/09/05 11:42:05;;;;;;;;;;;;;;;;;;5024251;28;19925;-69
2021/09/05 11:44:33;;;;;;;;;;;;;;;;;;5021995;28;19933;-68
2021/09/05 11:47:00;;;;;;;;;;;;;;;;;;5026314;28;20304;-70
2021/09/05 11:49:28;;;;;;;;;;;;;;;;;;5021921;28;19948;-69
2021/09/05 11:51:55;;;;;;;;;;;;;;;;;;5023498;28;20017;-68
2021/09/05 11:54:22;;;;;;;;;;;;;;;;;;5023782;28;19925;-69
2021/09/05 11:56:48;;;;;;;;;;;;;;;;;;5025083;28;20293;-69
2021/09/05 11:59:15;;;;;;;;;;;;;;;;;;5026502;28;20381;-69
2021/09/05 12:01:45;;;;;;;;;;;;;;;;;;5026948;28;19929;-69
2021/09/05 12:04:12;;;;;;;;;;;;;;;;;;5023926;28;19969;-69
2021/09/05 12:06:39;;;;;;;;;;;;;;;;;;5027059;28;19925;-71
2021/09/05 12:09:06;;;;;;;;;;;;;;;;;;5024946;28;19965;-69
2021/09/05 12:11:33;;;;;;;;;;;;;;;;;;5022839;28;20448;-67
2021/09/05 12:14:00;;;;;;;;;;;;;;;;;;5026173;28;20353;-67
2021/09/05 12:16:27;;;;;;;;;;;;;;;;;;5026709;28;19932;-66
2021/09/05 12:18:54;;;;;;;;;;;;;;;;;;5025076;28;19925;-66
2021/09/05 12:21:21;;;;;;;;;;;;;;;;;;5026011;28;19935;-67
2021/09/05 12:23:48;;;;;;;;;;;;;;;;;;5022501;28;20294;-66
2021/09/05 12:26:15;;;;;;;;;;;;;;;;;;5025680;28;20370;-66
2021/09/05 12:28:42;;;;;;;;;;;;;;;;;;5024614;28;19929;-66
2021/09/05 12:31:10;;;;;;;;;;;;;;;;;;5021543;28;19925;-66
2021/09/05 12:33:37;;;;;;;;;;;;;;;;;;5021044;28;20429;-67
2021/09/05 12:36:04;;;;;;;;;;;;;;;;;;5025084;28;20420;-67
2021/09/05 12:38:31;;;;;;;;;;;;;;;;;;5025547;28;19929;-66
2021/09/05 12:40:58;;;;;;;;;;;;;;;;;;5023407;28;19925;-66
2021/09/05 12:43:25;;;;;;;;;;;;;;;;;;5021501;28;19925;-67
2021/09/05 12:45:52;;;;;;;;;;;;;;;;;;5026280;28;19925;-71
2021/09/05 12:48:19;;;;;;;;;;;;;;;;;;5023808;28;19937;-70
2021/09/05 12:50:46;;;;;;;;;;;;;;;;;;5025719;28;19931;-70
2021/09/05 12:53:12;;;;;;;;;;;;;;;;;;5021335;28;19925;-70
2021/09/05 12:55:39;;;;;;;;;;;;;;;;;;5024686;28;19926;-70
2021/09/05 12:58:06;;;;;;;;;;;;;;;;;;5022881;28;19933;-70
2021/09/05 13:00:33;;;;;;;;;;;;;;;;;;5021676;28;19925;-70
2021/09/05 13:03:00;;;;;;;;;;;;;;;;;;5026110;28;19935;-70
2021/09/05 13:05:27;;;;;;;;;;;;;;;;;;5027866;28;20054;-70
2021/09/05 13:07:54;;;;;;;;;;;;;;;;;;5025736;28;19931;-70
2021/09/05 13:10:21;;;;;;;;;;;;;;;;;;5023311;28;19955;-70
2021/09/05 13:12:48;;;;;;;;;;;;;;;;;;5020923;28;19929;-70
2021/09/05 13:15:15;;;;;;;;;;;;;;;;;;5024400;28;19932;-70
2021/09/05 13:17:42;;;;;;;;;;;;;;;;;;5023401;28;19976;-70
2021/09/05 13:20:09;;;;;;;;;;;;;;;;;;5023598;28;19926;-70
2021/09/05 13:22:36;;;;;;;;;;;;;;;;;;5023370;28;19933;-70
2021/09/05 13:25:03;;;;;;;;;;;;;;;;;;5021455;28;20309;-70
2021/09/05 13:27:30;;;;;;;;;;;;;;;;;;5022416;28;20537;-72
2021/09/05 13:29:57;;;;;;;;;;;;;;;;;;5023821;28;20408;-71
2021/09/05 13:32:24;;;;;;;;;;;;;;;;;;5023661;28;19931;-71
2021/09/05 13:34:51;;;;;;;;;;;;;;;;;;5023626;28;19933;-71
2021/09/05 13:37:17;;;;;;;;;;;;;;;;;;5024458;28;19929;-71
2021/09/05 13:39:44;;;;;;;;;;;;;;;;;;5024047;28;19931;-71
2021/09/05 13:42:11;;;;;;;;;;;;;;;;;;5024641;28;20011;-71
2021/09/05 13:44:38;;;;;;;;;;;;;;;;;;5026210;28;20020;-71
2021/09/05 13:47:05;;;;;;;;;;;;;;;;;;5019258;28;19925;-72
2021/09/05 13:49:32;;;;;;;;;;;;;;;;;;5022616;28;20280;-72
2021/09/05 13:51:59;;;;;;;;;;;;;;;;;;5021667;28;19925;-71
2021/09/05 13:54:26;;;;;;;;;;;;;;;;;;5025805;28;19925;-71
2021/09/05 13:56:53;;;;;;;;;;;;;;;;;;5025523;28;19929;-71
2021/09/05 13:59:20;;;;;;;;;;;;;;;;;;5022500;28;19925;-71
2021/09/05 14:01:47;;;;;;;;;;;;;;;;;;5021834;28;19939;-72
2021/09/05 14:04:14;;;;;;;;;;;;;;;;;;5024295;28;19925;-72
2021/09/05 14:06:41;;;;;;;;;;;;;;;;;;5022644;28;20017;-72
2021/09/05 14:09:08;;;;;;;;;;;;;;;;;;5024889;28;19977;-72
2021/09/05 14:11:35;;;;;;;;;;;;;;;;;;5025442;28;20389;-72
2021/09/05 14:14:01;;;;;;;;;;;;;;;;;;5025485;28;19930;-72
2021/09/05 14:16:28;;;;;;;;;;;;;;;;;;5020441;28;19931;-72
2021/09/05 14:18:55;;;;;;;;;;;;;;;;;;5024539;28;19933;-72
2021/09/05 14:21:22;;;;;;;;;;;;;;;;;;5025607;28;19925;-72
2021/09/05 14:23:52;;;;;;;;;;;;;;;;;;5025816;28;20203;-72
2021/09/05 14:26:22;;;;;;;;;;;;;;;;;;5024487;28;20004;-72
2021/09/05 14:28:52;;;;;;;;;;;;;;;;;;5027572;28;20289;-72
2021/09/05 14:31:23;;;;;;;;;;;;;;;;;;5025301;28;19932;-72
2021/09/05 14:48:03;;;;;;;;;;;;;;;;;;5096266;28;20746;-72
2021/09/05 14:56:05;;;;;;;;;;;;;;;;;;5100511;28;19988;-72
2021/09/05 14:58:32;;;;;;;;;;;;;;;;;;5100332;28;19934;-72
2021/09/05 15:01:04;;;;;;;;;;;;;;;;;;5094683;28;19932;-72
2021/09/05 15:03:38;;;;;;;;;;;;;;;;;;5095187;28;19924;-72
2021/09/05 15:11:31;;;;;;;;;;;;;;;;;;5097494;28;19965;-72
2021/09/05 15:13:58;;;;;;;;;;;;;;;;;;5100453;28;19958;-71
2021/09/05 15:16:26;;;;;;;;;;;;;;;;;;5094637;28;19928;-72
2021/09/05 15:18:53;;;;;;;;;;;;;;;;;;5094942;28;20004;-71
2021/09/05 15:21:22;;;;;;;;;;;;;;;;;;5094814;28;19951;-72
2021/09/05 15:23:51;;;;;;;;;;;;;;;;;;5094261;28;19967;-72
2021/09/05 15:26:21;;;;;;;;;;;;;;;;;;5093902;28;20387;-72
2021/09/05 15:28:56;;;;;;;;;;;;;;;;;;5094675;28;19928;-71
2021/09/05 15:31:34;;;;;;;;;;;;;;;;;;5098552;28;19936;-71
2021/09/05 15:34:27;;;;;;;;;;;;;;;;;;5100709;28;20147;-71
2021/09/05 15:48:45;;;;;;;;;;;;;;;;;;5100499;28;19919;-72
2021/09/05 15:51:05;;;;;;;;;;;;;;;;;;5083742;28;19919;-70
2021/09/05 15:53:45;;;;;;;;;;;;;;;;;;5088723;28;19932;-70
2021/09/05 15:56:12;;;;;;;;;;;;;;;;;;5081752;28;19928;-70
2021/09/05 15:58:42;;;;;;;;;;;;;;;;;;5084644;28;19970;-71
2021/09/05 16:01:22;;;;;;;;;;;;;;;;;;5077508;28;19932;-71
2021/09/05 16:04:06;;;;;;;;;;;;;;;;;;5079290;28;19924;-70
2021/09/05 16:06:45;;;;;;;;;;;;;;;;;;5078772;28;19924;-70
2021/09/05 16:17:34;;;;;;;;;;;;;;;;;;5080165;28;19963;-70
2021/09/05 16:20:01;;;;;;;;;;;;;;;;;;5083067;28;19932;-70
2021/09/05 16:22:28;;;;;;;;;;;;;;;;;;5076875;28;19931;-70
2021/09/05 16:24:55;;;;;;;;;;;;;;;;;;5079995;28;20307;-69
2021/09/05 16:27:23;;;;;;;;;;;;;;;;;;5083121;28;20069;-70
2021/09/05 16:29:54;;;;;;;;;;;;;;;;;;5078270;28;19928;-70
2021/09/05 16:32:27;;;;;;;;;;;;;;;;;;5076747;28;19950;-71
2021/09/05 16:34:59;;;;;;;;;;;;;;;;;;5085738;28;19977;-70
2021/09/05 16:37:32;;;;;;;;;;;;;;;;;;5104071;28;20601;-71
2021/09/05 16:42:44;;;;;;;;;;;;;;;;;;5103729;28;19926;-71
2021/09/05 16:45:11;;;;;;;;;;;;;;;;;;5103034;28;19931;-73
2021/09/05 16:47:38;;;;;;;;;;;;;;;;;;5097830;28;19969;-70
2021/09/05 16:50:05;;;;;;;;;;;;;;;;;;5102054;28;19967;-70
2021/09/05 16:52:32;;;;;;;;;;;;;;;;;;5101019;28;20022;-70
2021/09/05 16:54:59;;;;;;;;;;;;;;;;;;5103230;28;20014;-69
2021/09/05 16:57:26;;;;;;;;;;;;;;;;;;5103846;28;20030;-70
2021/09/05 16:59:53;;;;;;;;;;;;;;;;;;5103877;28;19996;-70
2021/09/05 17:02:20;;;;;;;;;;;;;;;;;;5101474;28;20364;-70
2021/09/05 17:04:47;;;;;;;;;;;;;;;;;;5102659;28;20414;-71
2021/09/05 17:07:14;;;;;;;;;;;;;;;;;;5100217;28;20427;-71
2021/09/05 17:09:41;;;;;;;;;;;;;;;;;;5099850;28;20357;-71
2021/09/05 17:12:08;;;;;;;;;;;;;;;;;;5100727;28;20007;-70
2021/09/05 17:14:35;;;;;;;;;;;;;;;;;;5103659;28;19930;-70
2021/09/05 17:17:02;;;;;;;;;;;;;;;;;;5100608;28;19928;-71
2021/09/05 17:19:29;;;;;;;;;;;;;;;;;;5100782;28;20019;-70
2021/09/05 17:21:56;;;;;;;;;;;;;;;;;;5099009;28;19997;-70
2021/09/05 17:24:23;;;;;;;;;;;;;;;;;;5095415;28;19924;-70
2021/09/05 17:26:50;;;;;;;;;;;;;;;;;;5097221;28;19932;-68
2021/09/05 17:29:18;;;;;;;;;;;;;;;;;;5096326;28;20042;-69
2021/09/05 17:31:44;;;;;;;;;;;;;;;;;;5094899;28;20299;-70
2021/09/05 17:34:11;;;;;;;;;;;;;;;;;;5099342;27;19924;-69
2021/09/05 17:36:38;;;;;;;;;;;;;;;;;;5089558;28;20454;-68